Time,TemperatureF,DewpointF,PressureIn,WindDirection,WindDirectionDegrees,WindSpeedMPH,WindSpeedGustMPH,Humidity,HourlyPrecipIn,Conditions,Clouds,dailyrainin,SolarRadiationWatts/m^2,SoftwareType,DateUTC
2013-08-18 00:09:00,65.3,64.4,30.10,SE,127,2.0,3.0,97,0.00,,,0.00,0,Wunderground v.1.15,2013-08-18 05:09:00,
2013-08-18 00:14:00,65.3,64.4,30.10,SE,126,2.0,2.0,97,0.00,,,0.00,0,Wunderground v.1.15,2013-08-18 05:14:00,
2013-08-18 00:24:00,65.3,64.4,30.10,SE,141,2.0,4.0,97,0.00,,,0.00,0,Wunderground v.1.15,2013-08-18 05:24:00,
2013-08-18 00:34:00,65.4,64.5,30.10,SE,140,3.0,3.0,97,0.00,,,0.00,0,Wunderground v.1.15,2013-08-18 05:34:00,
2013-08-18 00:39:00,65.3,64.4,30.10,SE,129,4.0,5.0,97,0.00,,,0.00,0,Wunderground v.1.15,2013-08-18 05:39:00,
2013-08-18 00:49:00,65.4,64.5,30.10,ENE,62,3.0,4.0,97,0.00,,,0.00,0,Wunderground v.1.15,2013-08-18 05:49:00,
2013-08-18 00:54:00,65.4,64.2,30.09,SSE,153,2.0,2.0,96,0.00,,,0.00,0,Wunderground v.1.15,2013-08-18 05:54:00,
2013-08-18 01:04:00,65.4,64.2,30.09,SSE,148,3.0,4.0,96,0.00,,,0.00,0,Wunderground v.1.15,2013-08-18 06:04:00,
2013-08-18 01:14:00,65.4,64.2,30.09,SE,144,2.0,4.0,96,0.00,,,0.00,0,Wunderground v.1.15,2013-08-18 06:14:00,
2013-08-18 01:24:00,65.4,64.2,30.09,East,90,3.0,3.0,96,0.00,,,0.00,0,Wunderground v.1.15,2013-08-18 06:24:00,
2013-08-18 01:33:00,65.4,64.2,30.09,SE,139,2.0,3.0,96,0.00,,,0.00,0,Wunderground v.1.15,2013-08-18 06:33:00,
2013-08-18 01:39:00,65.4,64.2,30.09,ESE,118,2.0,3.0,96,0.00,,,0.00,0,Wunderground v.1.15,2013-08-18 06:39:00,
2013-08-18 01:49:00,65.3,64.1,30.09,SE,132,1.0,2.0,96,0.00,,,0.00,0,Wunderground v.1.15,2013-08-18 06:49:00,
2013-08-18 01:59:00,65.3,64.4,30.09,East,89,1.0,2.0,97,0.00,,,0.00,0,Wunderground v.1.15,2013-08-18 06:59:00,
2013-08-18 02:09:00,65.3,64.4,30.09,ESE,112,0.0,2.0,97,0.00,,,0.00,0,Wunderground v.1.15,2013-08-18 07:09:00,
2013-08-18 02:19:00,65.3,64.4,30.09,East,100,0.0,0.0,97,0.00,,,0.00,0,Wunderground v.1.15,2013-08-18 07:19:00,
2013-08-18 02:28:00,65.3,64.4,30.08,East,101,0.0,0.0,97,0.00,,,0.00,0,Wunderground v.1.15,2013-08-18 07:28:00,
2013-08-18 02:34:00,65.4,64.5,30.08,East,101,0.0,0.0,97,0.00,,,0.00,0,Wunderground v.1.15,2013-08-18 07:34:00,
2013-08-18 02:44:00,65.4,64.5,30.08,ESE,112,0.0,0.0,97,0.00,,,0.00,0,Wunderground v.1.15,2013-08-18 07:44:00,
2013-08-18 02:54:00,65.4,64.5,30.09,ESE,119,0.0,3.0,97,0.00,,,0.00,0,Wunderground v.1.15,2013-08-18 07:54:00,
2013-08-18 03:04:00,65.5,64.6,30.09,SE,131,1.0,1.0,97,0.00,,,0.00,0,Wunderground v.1.15,2013-08-18 08:04:00,
2013-08-18 03:14:00,65.5,64.6,30.09,East,86,1.0,1.0,97,0.00,,,0.00,0,Wunderground v.1.15,2013-08-18 08:14:00,
2013-08-18 03:19:00,65.5,64.6,30.08,ENE,75,1.0,1.0,97,0.00,,,0.00,0,Wunderground v.1.15,2013-08-18 08:19:00,
2013-08-18 03:29:00,65.6,64.7,30.09,East,82,0.0,0.0,97,0.00,,,0.00,0,Wunderground v.1.15,2013-08-18 08:29:00,
2013-08-18 03:38:00,65.6,64.7,30.09,ESE,121,1.0,1.0,97,0.00,,,0.00,0,Wunderground v.1.15,2013-08-18 08:38:00,
2013-08-18 03:44:00,65.6,64.7,30.09,SE,133,0.0,0.0,97,0.00,,,0.00,0,Wunderground v.1.15,2013-08-18 08:44:00,
2013-08-18 03:54:00,65.7,64.8,30.09,East,95,0.0,0.0,97,0.00,,,0.00,0,Wunderground v.1.15,2013-08-18 08:54:00,
2013-08-18 04:04:00,65.8,64.9,30.09,East,83,0.0,2.0,97,0.00,,,0.00,0,Wunderground v.1.15,2013-08-18 09:04:00,
2013-08-18 04:14:00,65.8,64.9,30.10,SE,142,0.0,1.0,97,0.00,,,0.00,0,Wunderground v.1.15,2013-08-18 09:14:00,
2013-08-18 04:19:00,65.8,64.9,30.10,ESE,119,1.0,2.0,97,0.00,,,0.00,0,Wunderground v.1.15,2013-08-18 09:19:00,
2013-08-18 04:29:00,65.8,64.9,30.10,ESE,103,2.0,4.0,97,0.00,,,0.00,0,Wunderground v.1.15,2013-08-18 09:29:00,
2013-08-18 04:34:00,65.8,64.9,30.10,SE,140,1.0,2.0,97,0.00,,,0.00,0,Wunderground v.1.15,2013-08-18 09:34:00,
2013-08-18 04:44:00,65.8,64.9,30.11,East,92,1.0,1.0,97,0.00,,,0.00,0,Wunderground v.1.15,2013-08-18 09:44:00,
2013-08-18 04:53:00,65.9,65.0,30.11,ENE,69,0.0,0.0,97,0.00,,,0.00,0,Wunderground v.1.15,2013-08-18 09:53:00,
2013-08-18 04:59:00,65.9,65.0,30.11,SE,126,0.0,1.0,97,0.00,,,0.00,0,Wunderground v.1.15,2013-08-18 09:59:00,
2013-08-18 05:09:00,65.9,65.0,30.10,East,84,0.0,3.0,97,0.00,,,0.00,0,Wunderground v.1.15,2013-08-18 10:09:00,
2013-08-18 05:18:00,65.9,65.0,30.10,East,82,0.0,0.0,97,0.00,,,0.00,0,Wunderground v.1.15,2013-08-18 10:18:00,
2013-08-18 05:24:00,65.9,65.0,30.11,East,82,0.0,0.0,97,0.00,,,0.00,0,Wunderground v.1.15,2013-08-18 10:24:00,
2013-08-18 05:34:00,65.9,65.0,30.11,ESE,112,0.0,0.0,97,0.00,,,0.00,0,Wunderground v.1.15,2013-08-18 10:34:00,
2013-08-18 05:44:00,66.1,65.2,30.11,ESE,111,0.0,0.0,97,0.00,,,0.00,0,Wunderground v.1.15,2013-08-18 10:44:00,
2013-08-18 05:53:00,66.1,65.2,30.12,ESE,111,0.0,0.0,97,0.00,,,0.00,0,Wunderground v.1.15,2013-08-18 10:53:00,
2013-08-18 05:59:00,66.1,65.2,30.12,ESE,111,0.0,0.0,97,0.00,,,0.00,0,Wunderground v.1.15,2013-08-18 10:59:00,
2013-08-18 06:09:00,66.1,65.2,30.12,ESE,119,0.0,0.0,97,0.00,,,0.00,0,Wunderground v.1.15,2013-08-18 11:09:00,
2013-08-18 06:19:00,66.1,65.2,30.13,ESE,119,0.0,0.0,97,0.00,,,0.00,0,Wunderground v.1.15,2013-08-18 11:19:00,
2013-08-18 06:28:00,66.2,65.3,30.13,SE,126,0.0,0.0,97,0.00,,,0.00,0,Wunderground v.1.15,2013-08-18 11:28:00,
2013-08-18 06:34:00,66.2,65.3,30.13,SE,126,0.0,0.0,97,0.00,,,0.00,0,Wunderground v.1.15,2013-08-18 11:34:00,
2013-08-18 06:43:00,66.3,65.4,30.14,SE,125,0.0,1.0,97,0.00,,,0.00,5,Wunderground v.1.15,2013-08-18 11:43:00,
2013-08-18 06:49:00,66.2,65.3,30.13,SE,146,0.0,2.0,97,0.00,,,0.01,9,Wunderground v.1.15,2013-08-18 11:49:00,
2013-08-18 06:58:00,66.2,65.3,30.14,SE,145,0.0,1.0,97,0.00,,,0.01,16,Wunderground v.1.15,2013-08-18 11:58:00,
2013-08-18 07:04:00,66.2,65.3,30.14,SE,141,0.0,0.0,97,0.00,,,0.01,18,Wunderground v.1.15,2013-08-18 12:04:00,
2013-08-18 07:14:00,66.3,65.7,30.14,South,180,0.0,1.0,98,0.00,,,0.01,21,Wunderground v.1.15,2013-08-18 12:14:00,
2013-08-18 07:24:00,66.3,65.7,30.14,SE,140,1.0,1.0,98,0.00,,,0.01,23,Wunderground v.1.15,2013-08-18 12:24:00,
2013-08-18 07:29:00,66.3,65.7,30.14,ESE,120,1.0,1.0,98,0.00,,,0.01,23,Wunderground v.1.15,2013-08-18 12:29:00,
2013-08-18 07:38:00,66.4,65.8,30.15,SE,142,1.0,1.0,98,0.00,,,0.01,40,Wunderground v.1.15,2013-08-18 12:38:00,
2013-08-18 07:44:00,66.4,65.8,30.14,ESE,119,1.0,1.0,98,0.00,,,0.01,42,Wunderground v.1.15,2013-08-18 12:44:00,
2013-08-18 07:54:00,66.5,65.9,30.14,East,98,1.0,1.0,98,0.00,,,0.01,44,Wunderground v.1.15,2013-08-18 12:54:00,
2013-08-18 08:03:00,66.5,65.9,30.14,ESE,119,2.0,2.0,98,0.00,,,0.01,46,Wunderground v.1.15,2013-08-18 13:03:00,
2013-08-18 08:09:00,66.5,65.9,30.14,SE,132,2.0,2.0,98,0.00,,,0.01,56,Wunderground v.1.15,2013-08-18 13:09:00,
2013-08-18 08:19:00,66.7,66.1,30.14,East,95,1.0,1.0,98,0.00,,,0.01,113,Wunderground v.1.15,2013-08-18 13:19:00,
2013-08-18 08:29:00,67.0,66.4,30.15,SSE,148,0.0,0.0,98,0.00,,,0.02,163,Wunderground v.1.15,2013-08-18 13:29:00,
2013-08-18 08:39:00,67.6,67.0,30.15,SSE,166,0.0,1.0,98,0.00,,,0.02,76,Wunderground v.1.15,2013-08-18 13:39:00,
2013-08-18 08:48:00,67.6,66.7,30.15,SSW,202,1.0,2.0,97,0.00,,,0.02,111,Wunderground v.1.15,2013-08-18 13:48:00,
2013-08-18 08:54:00,67.6,66.7,30.16,SSE,163,2.0,4.0,97,0.00,,,0.02,90,Wunderground v.1.15,2013-08-18 13:54:00,
2013-08-18 09:04:00,67.5,66.6,30.15,SW,227,4.0,6.0,97,0.00,,,0.02,83,Wunderground v.1.15,2013-08-18 14:04:00,
2013-08-18 09:14:00,67.5,66.6,30.15,South,188,3.0,6.0,97,0.00,,,0.03,176,Wunderground v.1.15,2013-08-18 14:14:00,
2013-08-18 09:24:00,67.7,66.8,30.15,South,188,3.0,4.0,97,0.00,,,0.03,209,Wunderground v.1.15,2013-08-18 14:24:00,
2013-08-18 09:34:00,68.1,66.9,30.15,SW,233,4.0,4.0,96,0.00,,,0.03,229,Wunderground v.1.15,2013-08-18 14:34:00,
2013-08-18 09:44:00,68.2,67.0,30.16,SSW,205,3.0,3.0,96,0.00,,,0.03,185,Wunderground v.1.15,2013-08-18 14:44:00,
2013-08-18 09:49:00,68.2,67.0,30.15,SW,223,3.0,8.0,96,0.00,,,0.03,190,Wunderground v.1.15,2013-08-18 14:49:00,
2013-08-18 09:59:00,68.3,67.1,30.16,SW,235,4.0,6.0,96,0.00,,,0.03,244,Wunderground v.1.15,2013-08-18 14:59:00,
2013-08-18 10:04:00,68.5,67.3,30.16,SW,230,3.0,3.0,96,0.00,,,0.03,202,Wunderground v.1.15,2013-08-18 15:04:00,
2013-08-18 10:13:00,68.8,67.3,30.16,WNW,286,1.0,7.0,95,0.00,,,0.03,283,Wunderground v.1.15,2013-08-18 15:13:00,
2013-08-18 10:19:00,69.0,67.8,30.16,SW,223,1.0,7.0,96,0.00,,,0.03,311,Wunderground v.1.15,2013-08-18 15:19:00,
2013-08-18 10:28:00,69.5,67.7,30.16,WSW,255,3.0,9.0,94,0.00,,,0.03,399,Wunderground v.1.15,2013-08-18 15:28:00,
2013-08-18 10:34:00,69.7,67.6,30.16,WSW,241,3.0,3.0,93,0.00,,,0.03,396,Wunderground v.1.15,2013-08-18 15:34:00,
2013-08-18 10:43:00,70.3,68.2,30.16,West,273,2.0,2.0,93,0.00,,,0.03,411,Wunderground v.1.15,2013-08-18 15:43:00,
2013-08-18 10:49:00,70.7,68.6,30.16,WSW,256,3.0,3.0,93,0.00,,,0.03,408,Wunderground v.1.15,2013-08-18 15:49:00,
2013-08-18 10:58:00,70.9,68.5,30.17,WSW,238,3.0,6.0,92,0.00,,,0.03,408,Wunderground v.1.15,2013-08-18 15:58:00,
2013-08-18 11:04:00,71.7,69.3,30.17,SSW,196,2.0,2.0,92,0.00,,,0.03,742,Wunderground v.1.15,2013-08-18 16:04:00,
2013-08-18 11:13:00,73.1,70.0,30.16,South,171,2.0,2.0,90,0.00,,,0.03,446,Wunderground v.1.15,2013-08-18 16:13:00,
2013-08-18 11:19:00,73.3,70.2,30.16,West,274,3.0,6.0,90,0.00,,,0.03,596,Wunderground v.1.15,2013-08-18 16:19:00,
2013-08-18 11:29:00,73.1,70.0,30.17,South,185,3.0,3.0,90,0.00,,,0.03,543,Wunderground v.1.15,2013-08-18 16:29:00,
2013-08-18 11:38:00,72.6,67.8,30.17,South,179,4.0,8.0,85,0.00,,,0.03,287,Wunderground v.1.15,2013-08-18 16:38:00,
2013-08-18 11:44:00,72.2,67.8,30.17,SW,219,4.0,4.0,86,0.00,,,0.03,659,Wunderground v.1.15,2013-08-18 16:44:00,
2013-08-18 11:54:00,73.2,68.8,30.17,WSW,239,3.0,3.0,86,0.00,,,0.03,396,Wunderground v.1.15,2013-08-18 16:54:00,
2013-08-18 12:04:00,73.3,68.9,30.16,SSE,154,2.0,4.0,86,0.00,,,0.03,346,Wunderground v.1.15,2013-08-18 17:04:00,
2013-08-18 12:14:00,72.8,68.7,30.16,SW,214,3.0,3.0,87,0.00,,,0.03,338,Wunderground v.1.15,2013-08-18 17:14:00,
2013-08-18 12:24:00,73.2,68.1,30.16,SW,225,2.0,3.0,84,0.00,,,0.03,373,Wunderground v.1.15,2013-08-18 17:24:00,
2013-08-18 12:33:00,73.4,67.9,30.16,WSW,237,3.0,7.0,83,0.00,,,0.03,332,Wunderground v.1.15,2013-08-18 17:33:00,
2013-08-18 12:39:00,73.4,68.6,30.16,South,190,3.0,7.0,85,0.00,,,0.03,360,Wunderground v.1.15,2013-08-18 17:39:00,
2013-08-18 12:49:00,74.2,69.7,30.15,SSW,201,3.0,6.0,86,0.00,,,0.03,605,Wunderground v.1.15,2013-08-18 17:49:00,
2013-08-18 12:59:00,74.8,68.9,30.15,SSW,211,3.0,6.0,82,0.00,,,0.03,547,Wunderground v.1.15,2013-08-18 17:59:00,
2013-08-18 13:09:00,73.6,68.5,30.15,SSW,193,4.0,7.0,84,0.00,,,0.03,345,Wunderground v.1.15,2013-08-18 18:09:00,
2013-08-18 13:18:00,73.5,68.7,30.15,SSE,161,2.0,3.0,85,0.00,,,0.03,422,Wunderground v.1.15,2013-08-18 18:18:00,
2013-08-18 13:24:00,74.2,69.4,30.15,SSE,147,2.0,2.0,85,0.00,,,0.03,591,Wunderground v.1.15,2013-08-18 18:24:00,
2013-08-18 13:33:00,74.9,69.0,30.15,SE,142,3.0,4.0,82,0.00,,,0.03,570,Wunderground v.1.15,2013-08-18 18:33:00,
2013-08-18 13:39:00,75.3,69.8,30.15,SSW,193,3.0,4.0,83,0.00,,,0.03,585,Wunderground v.1.15,2013-08-18 18:39:00,
2013-08-18 13:48:00,74.8,68.9,30.15,South,173,3.0,3.0,82,0.00,,,0.03,251,Wunderground v.1.15,2013-08-18 18:48:00,
2013-08-18 13:54:00,74.3,68.1,30.15,SSW,194,2.0,3.0,81,0.00,,,0.03,206,Wunderground v.1.15,2013-08-18 18:54:00,
2013-08-18 14:04:00,73.3,68.2,30.14,SSE,161,2.0,2.0,84,0.00,,,0.03,216,Wunderground v.1.15,2013-08-18 19:04:00,
2013-08-18 14:13:00,73.2,67.7,30.14,SSE,148,3.0,3.0,83,0.00,,,0.03,322,Wunderground v.1.15,2013-08-18 19:13:00,
2013-08-18 14:19:00,73.5,68.0,30.14,SSE,160,3.0,3.0,83,0.00,,,0.03,420,Wunderground v.1.15,2013-08-18 19:19:00,
2013-08-18 14:28:00,74.4,68.9,30.13,SE,128,4.0,4.0,83,0.00,,,0.03,490,Wunderground v.1.15,2013-08-18 19:28:00,
2013-08-18 14:34:00,74.3,67.7,30.13,SSW,194,5.0,5.0,80,0.00,,,0.03,390,Wunderground v.1.15,2013-08-18 19:34:00,
2013-08-18 14:44:00,74.8,68.9,30.13,South,169,3.0,3.0,82,0.00,,,0.03,429,Wunderground v.1.15,2013-08-18 19:44:00,
2013-08-18 14:53:00,74.5,68.6,30.12,SE,129,3.0,5.0,82,0.00,,,0.03,392,Wunderground v.1.15,2013-08-18 19:53:00,
2013-08-18 14:59:00,74.3,68.1,30.12,SE,132,4.0,5.0,81,0.00,,,0.03,279,Wunderground v.1.15,2013-08-18 19:59:00,
2013-08-18 15:09:00,74.3,69.1,30.12,SSE,168,2.0,3.0,84,0.00,,,0.03,381,Wunderground v.1.15,2013-08-18 20:09:00,
2013-08-18 15:19:00,74.5,68.3,30.12,SE,138,2.0,3.0,81,0.00,,,0.03,346,Wunderground v.1.15,2013-08-18 20:19:00,
2013-08-18 15:29:00,74.4,68.5,30.12,East,98,3.0,4.0,82,0.00,,,0.03,316,Wunderground v.1.15,2013-08-18 20:29:00,
2013-08-18 15:39:00,74.0,68.2,30.12,South,188,2.0,2.0,82,0.00,,,0.03,323,Wunderground v.1.15,2013-08-18 20:39:00,
2013-08-18 15:48:00,74.3,68.4,30.12,ESE,119,2.0,2.0,82,0.00,,,0.03,330,Wunderground v.1.15,2013-08-18 20:48:00,
2013-08-18 15:54:00,74.6,68.7,30.11,SSE,157,2.0,2.0,82,0.00,,,0.03,311,Wunderground v.1.15,2013-08-18 20:54:00,
2013-08-18 16:04:00,74.1,68.3,30.11,ESE,120,2.0,2.0,82,0.00,,,0.03,132,Wunderground v.1.15,2013-08-18 21:04:00,
2013-08-18 16:14:00,73.4,67.9,30.12,SSW,201,2.0,2.0,83,0.00,,,0.03,46,Wunderground v.1.15,2013-08-18 21:14:00,
2013-08-18 16:19:00,73.1,68.3,30.12,SE,131,1.0,2.0,85,0.00,,,0.03,42,Wunderground v.1.15,2013-08-18 21:19:00,
2013-08-18 16:29:00,72.7,68.6,30.11,SE,131,0.0,1.0,87,0.00,,,0.03,81,Wunderground v.1.15,2013-08-18 21:29:00,
2013-08-18 16:38:00,72.8,68.7,30.11,East,96,0.0,0.0,87,0.00,,,0.03,149,Wunderground v.1.15,2013-08-18 21:38:00,
2013-08-18 16:44:00,73.0,68.9,30.11,SSE,152,0.0,0.0,87,0.00,,,0.03,165,Wunderground v.1.15,2013-08-18 21:44:00,
2013-08-18 16:54:00,73.3,68.9,30.11,SE,127,1.0,2.0,86,0.00,,,0.03,185,Wunderground v.1.15,2013-08-18 21:54:00,
2013-08-18 17:03:00,73.6,69.2,30.11,SE,126,2.0,3.0,86,0.00,,,0.03,176,Wunderground v.1.15,2013-08-18 22:03:00,
2013-08-18 17:09:00,73.5,69.4,30.11,ESE,119,2.0,3.0,87,0.00,,,0.03,192,Wunderground v.1.15,2013-08-18 22:09:00,
2013-08-18 17:19:00,73.6,69.2,30.11,ESE,121,1.0,1.0,86,0.00,,,0.03,193,Wunderground v.1.15,2013-08-18 22:19:00,
2013-08-18 17:29:00,73.5,69.1,30.11,ESE,117,2.0,2.0,86,0.00,,,0.03,169,Wunderground v.1.15,2013-08-18 22:29:00,
2013-08-18 17:39:00,73.2,69.1,30.11,SE,127,1.0,2.0,87,0.00,,,0.03,98,Wunderground v.1.15,2013-08-18 22:39:00,
2013-08-18 17:48:00,72.9,68.8,30.11,ESE,117,1.0,1.0,87,0.00,,,0.03,86,Wunderground v.1.15,2013-08-18 22:48:00,
2013-08-18 17:54:00,72.7,68.9,30.10,East,98,1.0,2.0,88,0.00,,,0.03,72,Wunderground v.1.15,2013-08-18 22:54:00,
2013-08-18 18:04:00,72.4,68.6,30.10,ESE,108,1.0,1.0,88,0.00,,,0.03,56,Wunderground v.1.15,2013-08-18 23:04:00,
2013-08-18 18:14:00,72.2,68.8,30.10,ESE,120,1.0,1.0,89,0.00,,,0.03,62,Wunderground v.1.15,2013-08-18 23:14:00,
2013-08-18 18:24:00,72.1,68.7,30.10,ESE,119,1.0,2.0,89,0.00,,,0.03,58,Wunderground v.1.15,2013-08-18 23:24:00,
2013-08-18 18:34:00,71.9,68.8,30.09,SE,142,2.0,2.0,90,0.00,,,0.03,54,Wunderground v.1.15,2013-08-18 23:34:00,
2013-08-18 18:44:00,71.6,68.5,30.10,SE,142,0.0,1.0,90,0.00,,,0.03,44,Wunderground v.1.15,2013-08-18 23:44:00,
2013-08-18 18:54:00,71.3,68.5,30.10,SE,142,1.0,1.0,91,0.00,,,0.03,33,Wunderground v.1.15,2013-08-18 23:54:00,
2013-08-18 18:59:00,71.2,68.4,30.10,SE,142,0.0,1.0,91,0.00,,,0.03,30,Wunderground v.1.15,2013-08-18 23:59:00,
2013-08-18 19:09:00,70.9,68.1,30.10,SE,142,0.0,1.0,91,0.00,,,0.03,23,Wunderground v.1.15,2013-08-19 00:09:00,
2013-08-18 19:19:00,70.4,68.0,30.11,SE,142,0.0,0.0,92,0.00,,,0.03,16,Wunderground v.1.15,2013-08-19 00:19:00,
2013-08-18 19:29:00,70.1,68.0,30.11,SE,142,0.0,0.0,93,0.00,,,0.03,9,Wunderground v.1.15,2013-08-19 00:29:00,
2013-08-18 19:39:00,69.8,68.0,30.11,SE,142,0.0,0.0,94,0.00,,,0.03,0,Wunderground v.1.15,2013-08-19 00:39:00,
2013-08-18 19:49:00,69.6,67.8,30.11,SE,142,0.0,0.0,94,0.00,,,0.03,0,Wunderground v.1.15,2013-08-19 00:49:00,
2013-08-18 19:59:00,69.4,67.6,30.11,SE,142,0.0,0.0,94,0.00,,,0.03,0,Wunderground v.1.15,2013-08-19 00:59:00,
2013-08-18 20:09:00,69.4,67.6,30.11,SE,142,0.0,0.0,94,0.00,,,0.03,0,Wunderground v.1.15,2013-08-19 01:09:00,
2013-08-18 20:19:00,69.5,67.7,30.11,SE,142,0.0,0.0,94,0.00,,,0.03,0,Wunderground v.1.15,2013-08-19 01:19:00,
2013-08-18 20:28:00,69.3,67.5,30.11,SE,142,0.0,0.0,94,0.00,,,0.03,0,Wunderground v.1.15,2013-08-19 01:28:00,
2013-08-18 20:34:00,69.3,67.5,30.11,SE,141,0.0,0.0,94,0.00,,,0.03,0,Wunderground v.1.15,2013-08-19 01:34:00,
2013-08-18 20:44:00,69.4,67.6,30.12,SE,138,0.0,0.0,94,0.00,,,0.03,0,Wunderground v.1.15,2013-08-19 01:44:00,
2013-08-18 20:53:00,69.2,67.4,30.12,SE,138,0.0,0.0,94,0.00,,,0.03,0,Wunderground v.1.15,2013-08-19 01:53:00,
2013-08-18 20:59:00,69.1,67.6,30.12,SE,138,0.0,0.0,95,0.00,,,0.03,0,Wunderground v.1.15,2013-08-19 01:59:00,
2013-08-18 21:09:00,68.9,67.7,30.12,SE,138,0.0,0.0,96,0.00,,,0.03,0,Wunderground v.1.15,2013-08-19 02:09:00,
2013-08-18 21:19:00,69.2,68.0,30.13,SE,138,0.0,0.0,96,0.00,,,0.03,0,Wunderground v.1.15,2013-08-19 02:19:00,
2013-08-18 21:29:00,69.5,68.0,30.13,East,86,0.0,1.0,95,0.00,,,0.03,0,Wunderground v.1.15,2013-08-19 02:29:00,
2013-08-18 21:38:00,69.3,67.8,30.12,East,86,0.0,0.0,95,0.00,,,0.03,0,Wunderground v.1.15,2013-08-19 02:38:00,
2013-08-18 21:44:00,69.2,68.0,30.12,East,86,0.0,0.0,96,0.00,,,0.03,0,Wunderground v.1.15,2013-08-19 02:44:00,
2013-08-18 21:54:00,69.2,68.0,30.12,East,87,0.0,1.0,96,0.00,,,0.03,0,Wunderground v.1.15,2013-08-19 02:54:00,
2013-08-18 22:04:00,69.2,68.0,30.12,ESE,108,1.0,1.0,96,0.00,,,0.03,0,Wunderground v.1.15,2013-08-19 03:04:00,
2013-08-18 22:14:00,69.2,68.0,30.12,ENE,73,0.0,0.0,96,0.00,,,0.03,0,Wunderground v.1.15,2013-08-19 03:14:00,
2013-08-18 22:24:00,69.2,68.0,30.12,ENE,73,0.0,0.0,96,0.00,,,0.03,0,Wunderground v.1.15,2013-08-19 03:24:00,
2013-08-18 22:33:00,69.2,68.3,30.12,East,80,0.0,0.0,97,0.00,,,0.03,0,Wunderground v.1.15,2013-08-19 03:33:00,
2013-08-18 22:39:00,69.1,68.2,30.12,ENE,72,0.0,1.0,97,0.00,,,0.03,0,Wunderground v.1.15,2013-08-19 03:39:00,
2013-08-18 22:49:00,69.3,68.4,30.13,SE,127,1.0,2.0,97,0.00,,,0.03,0,Wunderground v.1.15,2013-08-19 03:49:00,
2013-08-18 22:59:00,69.5,68.3,30.12,NE,52,2.0,2.0,96,0.00,,,0.03,0,Wunderground v.1.15,2013-08-19 03:59:00,
2013-08-18 23:04:00,69.5,68.3,30.12,SE,129,1.0,1.0,96,0.00,,,0.03,0,Wunderground v.1.15,2013-08-19 04:04:00,
2013-08-18 23:08:00,69.6,68.4,30.12,SE,142,1.0,5.0,96,0.00,,,0.03,0,Wunderground v.1.15,2013-08-19 04:08:00,
2013-08-18 23:14:00,69.6,68.4,30.12,ESE,122,2.0,2.0,96,0.00,,,0.03,0,Wunderground v.1.15,2013-08-19 04:14:00,
2013-08-18 23:24:00,69.6,68.4,30.12,SE,140,3.0,4.0,96,0.00,,,0.03,0,Wunderground v.1.15,2013-08-19 04:24:00,
2013-08-18 23:29:00,69.6,68.4,30.12,SE,137,3.0,4.0,96,0.00,,,0.03,0,Wunderground v.1.15,2013-08-19 04:29:00,
2013-08-18 23:39:00,69.5,68.0,30.12,SSE,149,3.0,4.0,95,0.00,,,0.03,0,Wunderground v.1.15,2013-08-19 04:39:00,
2013-08-18 23:49:00,69.4,67.9,30.11,East,84,2.0,4.0,95,0.00,,,0.03,0,Wunderground v.1.15,2013-08-19 04:49:00,
2013-08-18 23:59:00,69.2,67.7,30.11,SE,124,2.0,3.0,95,0.00,,,0.03,0,Wunderground v.1.15,2013-08-19 04:59:00,